createdAt,value
2023-03-19T00:02:17.470Z,13.10
2023-03-19T00:04:46.243Z,13.10
2023-03-19T00:07:14.827Z,13.00
2023-03-19T00:09:42.895Z,13.00
2023-03-19T00:12:13.076Z,13.10
2023-03-19T00:14:41.131Z,13.10
2023-03-19T00:17:09.170Z,13.20
2023-03-19T00:19:37.123Z,13.20
2023-03-19T00:22:04.979Z,13.10
2023-03-19T00:24:33.205Z,13.20
2023-03-19T00:27:01.162Z,13.20
2023-03-19T00:29:30.914Z,13.10
2023-03-19T00:31:58.734Z,13.10
2023-03-19T00:34:26.983Z,13.10
2023-03-19T00:36:56.272Z,13.10
2023-03-19T00:39:24.108Z,13.00
2023-03-19T00:41:52.006Z,13.00
2023-03-19T00:44:20.208Z,12.80
2023-03-19T00:46:49.379Z,12.80
2023-03-19T00:49:17.250Z,12.90
2023-03-19T00:51:45.827Z,12.90
2023-03-19T00:54:14.015Z,13.00
2023-03-19T00:56:41.997Z,13.00
2023-03-19T00:59:09.808Z,12.90
2023-03-19T01:01:37.846Z,12.90
2023-03-19T01:04:07.191Z,13.00
2023-03-19T01:06:35.352Z,12.90
2023-03-19T01:09:03.290Z,12.80
2023-03-19T01:11:32.278Z,12.80
2023-03-19T01:14:00.287Z,12.70
2023-03-19T01:16:28.444Z,12.70
2023-03-19T01:18:56.305Z,12.70
2023-03-19T01:21:25.790Z,12.70
2023-03-19T01:23:53.802Z,12.60
2023-03-19T01:26:21.976Z,12.70
2023-03-19T01:28:50.155Z,12.60
2023-03-19T01:31:18.023Z,12.50
2023-03-19T01:33:46.459Z,12.50
2023-03-19T01:36:14.705Z,12.50
2023-03-19T01:38:43.884Z,12.50
2023-03-19T01:41:12.182Z,12.40
2023-03-19T01:43:40.026Z,12.40
2023-03-19T01:46:15.736Z,12.40
2023-03-19T01:48:46.800Z,12.30
2023-03-19T01:51:17.404Z,12.30
2023-03-19T01:53:50.842Z,12.30
2023-03-19T01:56:22.887Z,12.40
2023-03-19T01:58:54.409Z,12.40
2023-03-19T02:01:22.326Z,12.30
2023-03-19T02:03:51.557Z,12.30
2023-03-19T02:06:21.979Z,12.40
2023-03-19T02:08:53.530Z,12.40
2023-03-19T02:11:22.130Z,12.30
2023-03-19T02:13:50.115Z,12.30
2023-03-19T02:16:18.102Z,12.30
2023-03-19T02:18:46.392Z,12.30
2023-03-19T02:21:17.502Z,12.20
2023-03-19T02:23:54.188Z,12.20
2023-03-19T02:26:25.796Z,12.20
2023-03-19T02:28:54.667Z,12.20
2023-03-19T02:31:23.283Z,12.30
2023-03-19T02:34:02.131Z,12.30
2023-03-19T02:36:33.523Z,12.20
2023-03-19T02:39:06.108Z,12.30
2023-03-19T02:41:38.120Z,12.30
2023-03-19T02:44:06.543Z,12.30
2023-03-19T02:46:34.366Z,12.40
2023-03-19T02:49:02.385Z,12.40
2023-03-19T02:51:30.759Z,12.40
2023-03-19T02:54:00.766Z,12.50
2023-03-19T02:56:28.697Z,12.40
2023-03-19T02:58:58.045Z,12.50
2023-03-19T03:01:26.059Z,12.40
2023-03-19T03:03:54.065Z,12.40
2023-03-19T03:06:21.980Z,12.40
2023-03-19T03:08:49.870Z,12.40
2023-03-19T03:11:17.710Z,12.40
2023-03-19T03:13:45.898Z,12.40
2023-03-19T03:16:15.528Z,12.40
2023-03-19T03:18:43.366Z,12.40
2023-03-19T03:21:11.727Z,12.40
2023-03-19T03:23:39.651Z,12.30
2023-03-19T03:26:08.149Z,12.30
2023-03-19T03:28:35.999Z,12.30
2023-03-19T03:31:03.891Z,12.30
2023-03-19T03:33:33.718Z,12.30
2023-03-19T03:36:01.615Z,12.30
2023-03-19T03:38:29.674Z,12.20
2023-03-19T03:40:57.522Z,12.10
2023-03-19T03:43:26.214Z,12.00
2023-03-19T03:45:54.472Z,11.80
2023-03-19T03:48:22.850Z,11.90
2023-03-19T03:50:52.655Z,11.70
2023-03-19T03:53:20.553Z,11.70
2023-03-19T03:55:48.406Z,11.70
2023-03-19T03:58:17.029Z,11.70
2023-03-19T04:00:44.991Z,11.70
2023-03-19T04:03:13.591Z,11.70
2023-03-19T04:05:41.729Z,11.70
2023-03-19T04:08:10.993Z,11.50
2023-03-19T04:10:42.249Z,11.30
2023-03-19T04:13:10.192Z,11.30
2023-03-19T04:15:38.454Z,11.20
2023-03-19T04:18:06.585Z,11.30
2023-03-19T04:20:34.649Z,11.30
2023-03-19T04:23:03.335Z,11.30
2023-03-19T04:25:32.543Z,11.30
2023-03-19T04:28:00.387Z,11.30
2023-03-19T04:30:28.940Z,11.30
2023-03-19T04:32:56.953Z,11.20
2023-03-19T04:35:24.954Z,11.10
2023-03-19T04:37:52.901Z,11.10
2023-03-19T04:40:20.869Z,11.10
2023-03-19T04:42:50.050Z,11.10
2023-03-19T04:45:17.950Z,11.10
2023-03-19T04:47:45.777Z,11.20
2023-03-19T04:50:14.609Z,11.10
2023-03-19T04:52:42.582Z,11.00
2023-03-19T04:55:10.948Z,11.00
2023-03-19T04:57:38.771Z,11.00
2023-03-19T05:00:09.587Z,11.10
2023-03-19T05:02:37.691Z,11.10
2023-03-19T05:05:05.990Z,11.00
2023-03-19T05:07:34.188Z,10.90
2023-03-19T05:10:02.346Z,11.00
2023-03-19T05:12:30.146Z,10.90
2023-03-19T05:14:57.999Z,10.80
2023-03-19T05:17:27.727Z,10.80
2023-03-19T05:19:55.796Z,10.80
2023-03-19T05:22:24.772Z,10.70
2023-03-19T05:24:52.624Z,10.60
2023-03-19T05:27:20.467Z,10.50
2023-03-19T05:29:48.302Z,10.50
2023-03-19T05:32:16.147Z,10.50
2023-03-19T05:34:45.370Z,10.50
2023-03-19T05:37:13.576Z,10.50
2023-03-19T05:39:41.758Z,10.40
2023-03-19T05:42:09.803Z,10.20
2023-03-19T05:44:40.034Z,10.20
2023-03-19T05:47:08.761Z,10.20
2023-03-19T05:49:36.703Z,10.20
2023-03-19T05:52:06.136Z,10.20
2023-03-19T05:54:34.061Z,10.20
2023-03-19T05:57:03.496Z,10.20
2023-03-19T05:59:32.538Z,10.30
2023-03-19T06:02:00.498Z,10.20
2023-03-19T06:04:28.459Z,10.30
2023-03-19T06:06:56.286Z,10.40
2023-03-19T06:09:25.739Z,10.50
2023-03-19T06:11:53.615Z,10.50
2023-03-19T06:14:21.425Z,10.60
2023-03-19T06:16:49.278Z,10.50
2023-03-19T06:19:17.173Z,10.50
2023-03-19T06:21:45.066Z,10.40
2023-03-19T06:24:14.094Z,10.40
2023-03-19T06:26:43.255Z,10.50
2023-03-19T06:29:11.386Z,10.50
2023-03-19T06:31:41.650Z,10.60
2023-03-19T06:34:09.502Z,10.70
2023-03-19T06:36:37.542Z,10.70
2023-03-19T06:39:05.552Z,10.80
2023-03-19T06:41:33.411Z,10.80
2023-03-19T06:44:02.582Z,10.90
2023-03-19T06:46:31.297Z,11.00
2023-03-19T06:48:59.166Z,11.00
2023-03-19T06:51:27.688Z,11.00
2023-03-19T06:53:56.569Z,11.10
2023-03-19T06:56:24.816Z,11.10
2023-03-19T06:58:52.667Z,11.10
2023-03-19T07:01:22.063Z,11.20
2023-03-19T07:03:49.928Z,11.20
2023-03-19T07:06:17.768Z,11.20
2023-03-19T07:08:46.407Z,11.20
2023-03-19T07:11:15.255Z,11.10
2023-03-19T07:13:43.366Z,11.20
2023-03-19T07:16:11.284Z,11.30
2023-03-19T07:18:40.647Z,11.20
2023-03-19T07:21:08.458Z,11.30
2023-03-19T07:23:36.398Z,11.50
2023-03-19T07:26:04.440Z,11.50
2023-03-19T07:28:32.257Z,11.60
2023-03-19T07:31:00.179Z,11.60
2023-03-19T07:33:28.009Z,11.60
2023-03-19T07:35:57.175Z,11.50
2023-03-19T07:38:25.068Z,11.40
2023-03-19T07:41:01.789Z,11.30
2023-03-19T07:43:30.858Z,11.30
2023-03-19T07:45:58.801Z,11.30
2023-03-19T07:48:26.723Z,11.30
2023-03-19T07:50:54.777Z,11.50
2023-03-19T07:53:23.942Z,11.70
2023-03-19T07:55:51.727Z,11.80
2023-03-19T07:58:19.647Z,11.70
2023-03-19T08:00:47.610Z,11.80
2023-03-19T08:03:15.889Z,11.90
2023-03-19T08:05:43.742Z,12.10
2023-03-19T08:08:11.581Z,12.30
2023-03-19T08:10:41.110Z,12.40
2023-03-19T08:13:09.209Z,12.50
2023-03-19T08:15:37.119Z,12.60
2023-03-19T08:18:06.170Z,12.60
2023-03-19T08:20:34.269Z,12.60
2023-03-19T08:23:02.451Z,12.50
2023-03-19T08:25:32.493Z,12.20
2023-03-19T08:28:01.915Z,12.10
2023-03-19T08:30:30.120Z,12.40
2023-03-19T08:32:58.015Z,12.60
2023-03-19T08:35:27.221Z,12.50
2023-03-19T08:37:55.722Z,12.70
2023-03-19T08:40:24.187Z,12.80
2023-03-19T08:42:52.087Z,13.00
2023-03-19T08:45:22.089Z,13.20
2023-03-19T08:47:50.526Z,13.70
2023-03-19T08:50:19.361Z,14.00
2023-03-19T08:52:47.162Z,14.30
2023-03-19T08:55:15.906Z,14.70
2023-03-19T08:57:43.752Z,14.70
2023-03-19T09:00:12.662Z,14.70
2023-03-19T09:02:41.808Z,14.80
2023-03-19T09:05:10.241Z,14.90
2023-03-19T09:07:38.059Z,14.50
2023-03-19T09:10:06.863Z,14.40
2023-03-19T09:12:34.723Z,14.50
2023-03-19T09:15:03.419Z,14.60
2023-03-19T09:17:31.306Z,14.50
2023-03-19T09:20:00.496Z,14.70
2023-03-19T09:22:28.405Z,15.00
2023-03-19T09:24:56.228Z,15.00
2023-03-19T09:27:24.145Z,14.80
2023-03-19T09:29:51.942Z,14.90
2023-03-19T09:32:19.771Z,15.20
2023-03-19T09:34:47.699Z,15.50
2023-03-19T09:37:16.853Z,15.80
2023-03-19T09:39:44.701Z,15.90
2023-03-19T09:42:26.850Z,16.20
2023-03-19T09:44:55.057Z,16.40
2023-03-19T09:47:29.924Z,16.70
2023-03-19T09:50:02.135Z,17.00
2023-03-19T09:52:42.329Z,17.00
2023-03-19T09:55:21.639Z,17.10
2023-03-19T09:57:49.558Z,17.20
2023-03-19T10:00:23.833Z,17.00
2023-03-19T10:02:57.890Z,16.60
2023-03-19T10:05:33.662Z,16.40
2023-03-19T10:08:24.747Z,16.10
2023-03-19T10:11:04.692Z,15.80
2023-03-19T10:13:46.718Z,15.80
2023-03-19T10:16:20.057Z,15.70
2023-03-19T10:18:51.877Z,15.60
2023-03-19T10:21:27.596Z,15.80
2023-03-19T10:24:00.465Z,15.80
2023-03-19T10:26:31.991Z,16.00
2023-03-19T10:29:05.688Z,16.20
2023-03-19T10:31:44.144Z,16.20
2023-03-19T10:34:31.390Z,16.20
2023-03-19T10:37:01.432Z,16.30
2023-03-19T10:39:32.462Z,16.30
2023-03-19T10:42:14.034Z,16.00
2023-03-19T10:44:48.157Z,15.80
2023-03-19T10:47:19.158Z,15.70
2023-03-19T10:49:47.212Z,15.70
2023-03-19T10:52:22.274Z,15.60
2023-03-19T10:54:56.861Z,15.70
2023-03-19T10:57:28.605Z,15.70
2023-03-19T10:59:56.908Z,15.80
2023-03-19T11:02:27.924Z,15.80
2023-03-19T11:05:10.286Z,15.80
2023-03-19T11:07:38.947Z,15.80
2023-03-19T11:10:14.094Z,16.00
2023-03-19T11:12:42.495Z,16.20
2023-03-19T11:15:20.806Z,16.50
2023-03-19T11:17:50.754Z,16.60
2023-03-19T11:20:27.597Z,16.90
2023-03-19T11:22:56.170Z,17.40
2023-03-19T11:25:28.933Z,17.50
2023-03-19T11:28:02.018Z,17.70
2023-03-19T11:30:38.102Z,17.80
2023-03-19T11:33:31.635Z,17.70
2023-03-19T11:36:05.556Z,18.10
2023-03-19T11:38:40.779Z,18.50
2023-03-19T11:41:19.743Z,18.50
2023-03-19T11:43:56.137Z,18.10
2023-03-19T11:46:35.418Z,17.60
2023-03-19T11:49:19.342Z,17.10
2023-03-19T11:51:52.125Z,17.10
2023-03-19T11:54:28.662Z,17.00
2023-03-19T11:57:02.128Z,16.80
2023-03-19T11:59:39.271Z,16.90
2023-03-19T12:02:34.908Z,17.50
2023-03-19T12:05:20.295Z,18.20
2023-03-19T12:08:01.951Z,19.10
2023-03-19T12:10:38.630Z,19.90
2023-03-19T12:13:20.599Z,19.90
2023-03-19T12:15:58.570Z,18.90
2023-03-19T12:18:48.220Z,18.40
2023-03-19T12:21:23.545Z,18.20
2023-03-19T12:24:03.741Z,18.10
2023-03-19T12:26:40.731Z,18.10
2023-03-19T12:29:19.408Z,18.00
2023-03-19T12:32:15.891Z,18.00
2023-03-19T12:34:49.530Z,17.60
2023-03-19T12:37:23.539Z,17.40
2023-03-19T12:40:04.710Z,17.10
2023-03-19T12:42:38.727Z,16.90
2023-03-19T12:45:19.755Z,16.70
2023-03-19T12:47:48.765Z,16.40
2023-03-19T12:50:18.429Z,16.30
2023-03-19T12:52:50.874Z,16.10
2023-03-19T12:55:22.857Z,15.70
2023-03-19T12:57:54.537Z,15.70
2023-03-19T13:00:29.815Z,15.60
2023-03-19T13:03:02.136Z,15.30
2023-03-19T13:05:36.502Z,15.10
2023-03-19T13:08:11.902Z,15.10
2023-03-19T13:10:40.064Z,14.90
2023-03-19T13:13:23.458Z,14.90
2023-03-19T13:15:55.942Z,14.70
2023-03-19T13:18:37.027Z,14.70
2023-03-19T13:21:15.959Z,14.70
2023-03-19T13:23:46.402Z,14.50
2023-03-19T13:26:15.733Z,14.40
2023-03-19T13:28:56.699Z,14.10
2023-03-19T13:31:27.980Z,14.00
2023-03-19T13:34:03.639Z,14.10
2023-03-19T13:36:36.257Z,14.00
2023-03-19T13:39:04.645Z,13.80
2023-03-19T13:42:11.431Z,13.70
2023-03-19T13:44:48.945Z,13.60
2023-03-19T13:47:42.438Z,13.50
2023-03-19T13:50:33.526Z,13.40
2023-03-19T13:53:37.268Z,13.60
2023-03-19T13:56:15.745Z,13.60
2023-03-19T13:58:53.071Z,13.60
2023-03-19T14:01:38.709Z,13.70
2023-03-19T14:04:18.715Z,13.60
2023-03-19T14:06:50.046Z,13.60
2023-03-19T14:09:39.704Z,13.40
2023-03-19T14:12:23.514Z,13.40
2023-03-19T14:14:54.882Z,13.40
2023-03-19T14:17:26.203Z,13.40
2023-03-19T14:19:55.821Z,13.60
2023-03-19T14:22:36.684Z,13.60
2023-03-19T14:25:17.848Z,13.80
2023-03-19T14:27:48.661Z,13.80
2023-03-19T14:30:38.830Z,13.80
2023-03-19T14:33:16.046Z,13.80
2023-03-19T14:35:48.888Z,13.80
2023-03-19T14:38:29.045Z,13.90
2023-03-19T14:40:58.462Z,14.00
2023-03-19T14:43:47.594Z,13.90
2023-03-19T14:46:26.624Z,13.90
2023-03-19T14:49:27.946Z,14.00
2023-03-19T14:52:04.393Z,14.10
2023-03-19T14:54:38.781Z,14.20
2023-03-19T14:57:16.833Z,14.40
2023-03-19T14:59:44.668Z,14.90
2023-03-19T15:02:36.113Z,15.30
2023-03-19T15:05:07.007Z,15.90
2023-03-19T15:07:39.302Z,16.60
2023-03-19T15:10:15.077Z,17.10
2023-03-19T15:13:12.113Z,17.30
2023-03-19T15:15:50.870Z,17.60
2023-03-19T15:18:20.693Z,17.70
2023-03-19T15:20:54.375Z,18.20
2023-03-19T15:23:28.239Z,18.70
2023-03-19T15:25:58.209Z,19.10
2023-03-19T15:28:28.199Z,18.90
2023-03-19T15:31:05.623Z,19.00
2023-03-19T15:33:41.916Z,19.10
2023-03-19T15:36:16.328Z,19.40
2023-03-19T15:38:48.449Z,19.30
2023-03-19T15:41:17.015Z,18.70
2023-03-19T15:43:45.594Z,18.50
2023-03-19T15:46:16.732Z,18.80
2023-03-19T15:48:49.484Z,19.20
2023-03-19T15:51:20.741Z,19.40
2023-03-19T15:53:50.458Z,19.50
2023-03-19T15:56:20.865Z,19.60
2023-03-19T15:58:53.270Z,19.30
2023-03-19T16:01:22.392Z,19.40
2023-03-19T16:03:53.022Z,19.60
2023-03-19T16:06:26.536Z,19.50
2023-03-19T16:09:07.149Z,19.00
2023-03-19T16:11:37.535Z,19.00
2023-03-19T16:14:17.558Z,19.20
2023-03-19T16:16:47.742Z,19.50
2023-03-19T16:19:30.820Z,19.80
2023-03-19T16:21:59.491Z,20.00
2023-03-19T16:24:33.590Z,20.20
2023-03-19T16:27:05.099Z,20.00
2023-03-19T16:29:37.237Z,19.90
2023-03-19T16:32:14.399Z,19.80
2023-03-19T16:34:46.796Z,19.60
2023-03-19T16:37:28.082Z,19.00
2023-03-19T16:39:58.701Z,18.20
2023-03-19T16:42:37.806Z,17.80
2023-03-19T16:45:23.987Z,17.20
2023-03-19T16:47:53.211Z,16.60
2023-03-19T16:50:23.115Z,16.10
2023-03-19T16:52:51.156Z,15.80
2023-03-19T16:55:23.861Z,15.70
2023-03-19T16:57:56.896Z,15.50
2023-03-19T17:00:26.069Z,15.40
2023-03-19T17:02:55.778Z,15.20
2023-03-19T17:05:23.721Z,15.10
2023-03-19T17:07:51.700Z,14.80
2023-03-19T17:10:22.880Z,14.60
2023-03-19T17:12:53.197Z,14.60
2023-03-19T17:15:25.728Z,14.40
2023-03-19T17:17:54.046Z,14.30
2023-03-19T17:20:23.626Z,14.20
2023-03-19T17:22:51.558Z,14.10
2023-03-19T17:25:19.726Z,14.10
2023-03-19T17:27:49.037Z,14.20
2023-03-19T17:30:17.325Z,14.20
2023-03-19T17:32:49.649Z,14.10
2023-03-19T17:35:19.968Z,14.10
2023-03-19T17:37:48.441Z,14.10
2023-03-19T17:40:18.963Z,14.10
2023-03-19T17:42:47.309Z,14.10
2023-03-19T17:45:18.059Z,14.00
2023-03-19T17:47:49.174Z,13.90
2023-03-19T17:50:20.233Z,13.80
2023-03-19T17:52:48.347Z,13.80
2023-03-19T17:55:18.331Z,13.70
2023-03-19T17:57:46.695Z,13.60
2023-03-19T18:00:16.575Z,13.50
2023-03-19T18:02:47.351Z,13.40
2023-03-19T18:05:17.190Z,13.30
2023-03-19T18:07:45.478Z,13.20
2023-03-19T18:10:18.396Z,13.20
2023-03-19T18:12:46.276Z,13.20
2023-03-19T18:15:14.880Z,13.20
2023-03-19T18:17:47.153Z,13.10
2023-03-19T18:20:17.074Z,13.10
2023-03-19T18:22:44.907Z,13.20
2023-03-19T18:25:17.062Z,13.10
2023-03-19T18:27:45.059Z,13.00
2023-03-19T18:30:15.694Z,12.90
2023-03-19T18:32:47.139Z,12.80
2023-03-19T18:35:18.852Z,12.70
2023-03-19T18:37:48.662Z,12.80
2023-03-19T18:40:19.794Z,12.80
2023-03-19T18:42:48.587Z,12.70
2023-03-19T18:45:18.349Z,12.60
2023-03-19T18:47:49.271Z,12.70
2023-03-19T18:50:19.770Z,12.60
2023-03-19T18:52:49.489Z,12.60
2023-03-19T18:55:18.682Z,12.60
2023-03-19T18:57:53.431Z,12.60
2023-03-19T19:00:25.339Z,12.60
2023-03-19T19:02:55.575Z,12.60
2023-03-19T19:05:26.879Z,12.70
2023-03-19T19:07:55.733Z,12.60
2023-03-19T19:10:24.628Z,12.60
2023-03-19T19:12:54.552Z,12.60
2023-03-19T19:15:25.283Z,12.70
2023-03-19T19:17:54.612Z,12.60
2023-03-19T19:20:24.357Z,12.50
2023-03-19T19:22:53.034Z,12.50
2023-03-19T19:25:23.226Z,12.50
2023-03-19T19:27:59.181Z,12.40
2023-03-19T19:30:27.471Z,12.40
2023-03-19T19:32:57.257Z,12.40
2023-03-19T19:35:27.352Z,12.40
2023-03-19T19:37:56.295Z,12.40
2023-03-19T19:40:34.996Z,12.40
2023-03-19T19:43:02.985Z,12.40
2023-03-19T19:45:34.522Z,12.30
2023-03-19T19:48:04.672Z,12.30
2023-03-19T19:50:32.624Z,12.20
2023-03-19T19:53:00.725Z,12.20
2023-03-19T19:55:28.569Z,12.20
2023-03-19T19:57:58.137Z,12.20
2023-03-19T20:00:28.512Z,12.30
2023-03-19T20:02:57.409Z,12.30
2023-03-19T20:05:28.677Z,12.40
2023-03-19T20:07:58.118Z,12.40
2023-03-19T20:10:28.901Z,12.30
2023-03-19T20:12:58.281Z,12.30
2023-03-19T20:15:28.085Z,12.30
2023-03-19T20:17:56.480Z,12.30
2023-03-19T20:20:28.431Z,12.20
2023-03-19T20:22:57.805Z,12.10
2023-03-19T20:25:28.763Z,12.10
2023-03-19T20:27:59.357Z,12.00
2023-03-19T20:30:29.853Z,12.00
2023-03-19T20:32:59.214Z,12.00
2023-03-19T20:35:30.077Z,12.00
2023-03-19T20:38:00.252Z,12.00
2023-03-19T20:40:31.929Z,12.00
2023-03-19T20:43:00.782Z,11.90
2023-03-19T20:45:34.178Z,11.90
2023-03-19T20:48:02.771Z,11.80
2023-03-19T20:50:34.667Z,11.80
2023-03-19T20:53:03.522Z,11.80
2023-03-19T20:55:33.721Z,11.70
2023-03-19T20:58:03.806Z,11.70
2023-03-19T21:00:33.234Z,11.60
2023-03-19T21:03:02.404Z,11.70
2023-03-19T21:05:36.602Z,11.60
2023-03-19T21:08:06.178Z,11.60
2023-03-19T21:10:38.991Z,11.60
2023-03-19T21:13:08.071Z,11.50
2023-03-19T21:15:36.168Z,11.50
2023-03-19T21:18:04.154Z,11.40
2023-03-19T21:20:34.402Z,11.40
2023-03-19T21:23:10.274Z,11.30
2023-03-19T21:25:38.165Z,11.20
2023-03-19T21:28:12.429Z,11.10
2023-03-19T21:30:43.513Z,11.10
2023-03-19T21:33:23.168Z,11.00
2023-03-19T21:35:53.281Z,11.00
2023-03-19T21:38:21.693Z,11.00
2023-03-19T21:40:50.213Z,11.00
2023-03-19T21:43:22.777Z,11.00
2023-03-19T21:45:51.541Z,11.00
2023-03-19T21:48:30.605Z,10.90
2023-03-19T21:51:00.674Z,10.80
2023-03-19T21:53:29.000Z,10.80
2023-03-19T21:55:58.453Z,10.70
2023-03-19T21:58:30.278Z,10.60
2023-03-19T22:00:58.197Z,10.60
2023-03-19T22:03:26.308Z,10.50
2023-03-19T22:05:55.084Z,10.60
2023-03-19T22:08:26.031Z,10.60
2023-03-19T22:10:56.685Z,10.70
2023-03-19T22:13:27.668Z,10.80
2023-03-19T22:15:57.729Z,10.80
2023-03-19T22:18:26.059Z,10.80
2023-03-19T22:20:53.961Z,10.80
2023-03-19T22:23:22.369Z,10.90
2023-03-19T22:25:53.902Z,10.90
2023-03-19T22:28:30.847Z,11.00
2023-03-19T22:30:59.490Z,11.10
2023-03-19T22:33:27.955Z,11.10
2023-03-19T22:35:56.296Z,11.10
2023-03-19T22:38:24.363Z,11.10
2023-03-19T22:40:56.830Z,11.10
2023-03-19T22:43:29.430Z,11.00
2023-03-19T22:46:00.807Z,10.70
2023-03-19T22:48:28.919Z,10.60
2023-03-19T22:50:57.139Z,10.40
2023-03-19T22:53:27.836Z,10.60
2023-03-19T22:55:57.365Z,10.50
2023-03-19T22:58:25.413Z,10.50
2023-03-19T23:00:54.209Z,10.60
2023-03-19T23:03:24.580Z,10.60
2023-03-19T23:05:54.544Z,10.80
2023-03-19T23:08:22.753Z,10.80
2023-03-19T23:10:53.367Z,10.80
2023-03-19T23:13:23.145Z,10.80
2023-03-19T23:15:56.556Z,10.80
2023-03-19T23:18:28.335Z,10.90
2023-03-19T23:20:56.885Z,10.90
2023-03-19T23:23:25.769Z,10.90
2023-03-19T23:25:53.836Z,10.90
2023-03-19T23:28:25.569Z,10.90
2023-03-19T23:30:53.649Z,10.90
2023-03-19T23:33:22.765Z,10.90
2023-03-19T23:35:50.591Z,10.80
2023-03-19T23:38:18.461Z,10.80
2023-03-19T23:40:46.908Z,10.90
2023-03-19T23:43:20.121Z,10.80
2023-03-19T23:45:51.301Z,10.80
2023-03-19T23:48:22.085Z,10.80
2023-03-19T23:50:50.518Z,10.80
2023-03-19T23:53:21.904Z,10.90
2023-03-19T23:55:52.072Z,10.80
2023-03-19T23:58:20.441Z,10.80
